createdAt,value
2022-08-09T00:00:04.928Z,102029.91
2022-08-09T00:02:42.841Z,102014.22
2022-08-09T00:06:19.383Z,102020.84
2022-08-09T00:08:10.836Z,102021.59
2022-08-09T00:10:40.291Z,102018.63
2022-08-09T00:13:16.699Z,102021.81
2022-08-09T00:16:00.084Z,102023.00
2022-08-09T00:18:34.594Z,102026.81
2022-08-09T00:21:04.650Z,102037.59
2022-08-09T00:23:56.723Z,102025.22
2022-08-09T00:26:29.494Z,102029.28
2022-08-09T00:29:00.920Z,102020.34
2022-08-09T00:31:59.150Z,102022.00
2022-08-09T00:34:19.490Z,102028.59
2022-08-09T00:36:48.907Z,102028.59
2022-08-09T00:40:09.274Z,102023.13
2022-08-09T00:44:10.959Z,102031.22
2022-08-09T00:44:53.955Z,102016.16
2022-08-09T00:47:24.577Z,102025.16
2022-08-09T00:49:54.826Z,102016.66
2022-08-09T00:52:30.044Z,102015.75
2022-08-09T00:55:00.349Z,102011.72
2022-08-09T00:57:34.914Z,102024.44
2022-08-09T01:00:20.400Z,101973.09
2022-08-09T01:02:54.853Z,102020.19
2022-08-09T01:05:51.883Z,102024.09
2022-08-09T01:08:27.042Z,102013.34
2022-08-09T01:11:08.523Z,102021.50
2022-08-09T01:13:59.494Z,102033.44
2022-08-09T01:16:35.281Z,102033.28
2022-08-09T01:19:16.652Z,102031.97
2022-08-09T01:22:00.057Z,102029.91
2022-08-09T01:24:39.147Z,102039.91
2022-08-09T01:27:11.248Z,102034.44
2022-08-09T01:29:56.106Z,102042.53
2022-08-09T01:32:34.141Z,102029.81
2022-08-09T01:35:28.239Z,102033.25
2022-08-09T01:38:07.815Z,102031.94
2022-08-09T01:40:53.097Z,102031.50
2022-08-09T01:43:51.218Z,102041.25
2022-08-09T01:46:24.737Z,102030.63
2022-08-09T01:48:56.829Z,102034.69
2022-08-09T01:51:26.712Z,102034.53
2022-08-09T01:53:58.268Z,102027.97
2022-08-09T01:56:28.594Z,102027.06
2022-08-09T01:58:59.970Z,102033.06
2022-08-09T02:01:30.664Z,102029.63
2022-08-09T02:04:19.285Z,102008.88
2022-08-09T02:07:18.156Z,102021.06
2022-08-09T02:10:05.023Z,102024.38
2022-08-09T02:12:35.261Z,102020.16
2022-08-09T02:15:11.741Z,102020.75
2022-08-09T02:18:01.600Z,102026.72
2022-08-09T02:20:41.829Z,102021.66
2022-08-09T02:23:16.954Z,102033.00
2022-08-09T02:25:52.792Z,102027.66
2022-08-09T02:28:30.425Z,102035.78
2022-08-09T02:31:05.998Z,102025.88
2022-08-09T02:37:24.263Z,102020.69
2022-08-09T02:40:05.187Z,102019.38
2022-08-09T02:42:42.352Z,102019.72
2022-08-09T02:45:28.719Z,102016.72
2022-08-09T02:48:19.484Z,102013.47
2022-08-09T02:51:02.582Z,102020.03
2022-08-09T02:53:34.663Z,102018.72
2022-08-09T02:56:10.271Z,102019.16
2022-08-09T02:58:40.392Z,102022.16
2022-08-09T03:01:15.225Z,102026.03
2022-08-09T03:04:17.806Z,102026.63
2022-08-09T03:06:48.911Z,102038.25
2022-08-09T03:09:17.831Z,102037.97
2022-08-09T03:12:05.450Z,102033.50
2022-08-09T03:14:36.781Z,102038.97
2022-08-09T03:17:05.689Z,102047.34
2022-08-09T03:19:58.503Z,102047.22
2022-08-09T03:22:41.523Z,102051.97
2022-08-09T03:25:21.865Z,102047.47
2022-08-09T03:28:00.971Z,102041.97
2022-08-09T03:30:33.874Z,102045.25
2022-08-09T03:33:16.806Z,102047.06
2022-08-09T03:36:13.172Z,102049.59
2022-08-09T03:38:42.117Z,102045.84
2022-08-09T03:41:15.685Z,102037.06
2022-08-09T03:44:03.573Z,102040.03
2022-08-09T03:46:34.911Z,102033.91
2022-08-09T03:49:07.918Z,102041.19
2022-08-09T03:51:55.815Z,102042.69
2022-08-09T03:54:29.123Z,102046.88
2022-08-09T03:56:58.957Z,102044.06
2022-08-09T03:59:42.813Z,102047.34
2022-08-09T04:02:11.628Z,102045.38
2022-08-09T04:04:46.340Z,102043.63
2022-08-09T04:07:17.635Z,102050.00
2022-08-09T04:09:50.277Z,102052.41
2022-08-09T04:12:44.394Z,102050.19
2022-08-09T04:15:29.680Z,102051.41
2022-08-09T04:18:01.907Z,102044.38
2022-08-09T04:20:29.920Z,102057.69
2022-08-09T04:23:02.225Z,102046.94
2022-08-09T04:25:30.415Z,102054.38
2022-08-09T04:28:02.400Z,102061.41
2022-08-09T04:30:31.811Z,102061.25
2022-08-09T04:33:01.796Z,102063.19
2022-08-09T04:35:32.634Z,102064.66
2022-08-09T04:38:03.714Z,102066.50
2022-08-09T04:40:45.793Z,102067.53
2022-08-09T04:43:14.297Z,102077.41
2022-08-09T04:45:53.610Z,102068.13
2022-08-09T04:48:23.877Z,102057.97
2022-08-09T04:51:01.600Z,102084.25
2022-08-09T04:53:31.403Z,102087.25
2022-08-09T04:56:00.571Z,102081.56
2022-08-09T04:58:28.977Z,102087.84
2022-08-09T05:00:58.244Z,102090.38
2022-08-09T05:03:43.163Z,102085.00
2022-08-09T05:06:21.832Z,102068.56
2022-08-09T05:09:00.393Z,102096.78
2022-08-09T05:11:32.170Z,102100.50
2022-08-09T05:14:05.941Z,102092.31
2022-08-09T05:16:58.260Z,102096.47
2022-08-09T05:19:25.581Z,102099.59
2022-08-09T05:21:55.489Z,102090.06
2022-08-09T05:24:25.956Z,102089.81
2022-08-09T05:26:54.360Z,102091.16
2022-08-09T05:29:24.164Z,102082.00
2022-08-09T05:31:58.349Z,102080.06
2022-08-09T05:34:32.117Z,102085.16
2022-08-09T05:37:04.933Z,102081.56
2022-08-09T05:39:43.380Z,102074.19
2022-08-09T05:42:20.555Z,102084.03
2022-08-09T05:44:51.501Z,102092.88
2022-08-09T05:47:21.379Z,102090.63
2022-08-09T05:50:30.059Z,102088.53
2022-08-09T05:52:38.872Z,102087.72
2022-08-09T05:55:20.808Z,102085.97
2022-08-09T05:57:56.442Z,102091.69
2022-08-09T06:00:26.988Z,102091.44
2022-08-09T06:02:57.573Z,102095.81
2022-08-09T06:05:49.967Z,102101.34
2022-08-09T06:08:19.344Z,102104.78
2022-08-09T06:10:55.091Z,102098.94
2022-08-09T06:13:24.463Z,102103.19
2022-08-09T06:15:53.185Z,102110.41
2022-08-09T06:18:24.768Z,102104.53
2022-08-09T06:20:57.398Z,102105.75
2022-08-09T06:23:55.832Z,102109.06
2022-08-09T06:26:20.046Z,102116.41
2022-08-09T06:28:59.443Z,102106.88
2022-08-09T06:31:40.430Z,102103.38
2022-08-09T06:34:23.136Z,102109.00
2022-08-09T06:36:58.953Z,102114.47
2022-08-09T06:39:38.909Z,102117.16
2022-08-09T06:42:19.688Z,102128.03
2022-08-09T06:44:54.076Z,102129.38
2022-08-09T06:47:23.685Z,102125.16
2022-08-09T06:50:13.921Z,102124.13
2022-08-09T06:52:47.070Z,102124.53
2022-08-09T06:55:15.925Z,102121.47
2022-08-09T06:58:02.520Z,102125.97
2022-08-09T07:00:49.221Z,102123.91
2022-08-09T07:03:27.960Z,102121.06
2022-08-09T07:06:03.830Z,102127.75
2022-08-09T07:08:35.288Z,102133.25
2022-08-09T07:11:06.254Z,102125.72
2022-08-09T07:13:45.552Z,102129.38
2022-08-09T07:16:42.521Z,102132.28
2022-08-09T07:19:15.153Z,102131.28
2022-08-09T07:21:55.592Z,102132.09
2022-08-09T07:24:31.918Z,102128.59
2022-08-09T07:27:02.288Z,102129.94
2022-08-09T07:29:38.107Z,102135.06
2022-08-09T07:32:13.998Z,102138.78
2022-08-09T07:34:44.869Z,102135.53
2022-08-09T07:37:17.151Z,102130.22
2022-08-09T07:39:50.024Z,102141.13
2022-08-09T07:42:18.952Z,102111.16
2022-08-09T07:45:06.328Z,102131.09
2022-08-09T07:48:00.700Z,102131.69
2022-08-09T07:50:33.048Z,102132.81
2022-08-09T07:53:04.682Z,102132.06
2022-08-09T07:56:02.903Z,102117.47
2022-08-09T07:58:26.794Z,102126.56
2022-08-09T08:01:06.331Z,102128.31
2022-08-09T08:03:39.233Z,102131.78
2022-08-09T08:06:14.408Z,102122.84
2022-08-09T08:09:02.443Z,102127.88
2022-08-09T08:12:11.321Z,102125.13
2022-08-09T08:14:24.037Z,102127.81
2022-08-09T08:17:12.095Z,102126.00
2022-08-09T08:19:52.995Z,102133.81
2022-08-09T08:22:37.955Z,102135.19
2022-08-09T08:25:14.339Z,102131.63
2022-08-09T08:27:43.304Z,102125.16
2022-08-09T08:30:18.541Z,102126.66
2022-08-09T08:32:53.624Z,102127.00
2022-08-09T08:35:25.219Z,102136.09
2022-08-09T08:38:11.456Z,102128.66
2022-08-09T08:40:44.522Z,102133.22
2022-08-09T08:43:20.771Z,102131.41
2022-08-09T08:46:09.955Z,102136.41
2022-08-09T08:48:53.398Z,102133.56
2022-08-09T08:51:41.492Z,102127.81
2022-08-09T08:54:20.620Z,102119.75
2022-08-09T08:56:58.183Z,102131.16
2022-08-09T08:59:46.731Z,102138.94
2022-08-09T09:02:31.408Z,102130.22
2022-08-09T09:05:10.201Z,102139.69
2022-08-09T09:07:44.691Z,102134.97
2022-08-09T09:10:13.719Z,102133.00
2022-08-09T09:12:43.281Z,102133.41
2022-08-09T09:15:12.329Z,102136.72
2022-08-09T09:17:56.584Z,102136.88
2022-08-09T09:20:27.642Z,102140.09
2022-08-09T09:22:57.502Z,102139.00
2022-08-09T09:26:01.787Z,102143.25
2022-08-09T09:28:53.232Z,102140.44
2022-08-09T09:32:06.934Z,102141.09
2022-08-09T09:34:18.370Z,102134.69
2022-08-09T09:36:54.182Z,102141.63
2022-08-09T09:39:25.569Z,102145.13
2022-08-09T09:42:24.450Z,102144.13
2022-08-09T09:44:57.696Z,102141.22
2022-08-09T09:47:28.596Z,102145.59
2022-08-09T09:50:15.293Z,102146.09
2022-08-09T09:52:56.889Z,102130.38
2022-08-09T09:55:28.338Z,102138.75
2022-08-09T09:58:16.681Z,102111.00
2022-08-09T10:00:52.564Z,102133.47
2022-08-09T10:03:42.931Z,102126.41
2022-08-09T10:06:12.570Z,102127.81
2022-08-09T10:08:54.801Z,102106.66
2022-08-09T10:11:54.049Z,102124.31
2022-08-09T10:14:27.425Z,102112.13
2022-08-09T10:17:11.455Z,102113.63
2022-08-09T10:19:52.006Z,102111.72
2022-08-09T10:22:33.055Z,102118.25
2022-08-09T10:25:11.397Z,102112.88
2022-08-09T10:27:57.171Z,102108.34
2022-08-09T10:34:08.869Z,102107.59
2022-08-09T10:36:03.260Z,102105.06
2022-08-09T10:38:54.390Z,102107.97
2022-08-09T10:41:22.381Z,102106.28
2022-08-09T10:44:02.030Z,102111.47
2022-08-09T10:48:12.144Z,102103.25
2022-08-09T10:50:14.907Z,102090.97
2022-08-09T10:53:10.417Z,102104.84
2022-08-09T10:55:58.494Z,102093.72
2022-08-09T10:58:33.948Z,102105.81
2022-08-09T11:03:02.915Z,102096.06
2022-08-09T11:04:27.742Z,102097.09
2022-08-09T11:07:27.335Z,102093.94
2022-08-09T11:10:16.231Z,102076.22
2022-08-09T11:13:49.421Z,102111.53
2022-08-09T11:16:37.129Z,102105.66
2022-08-09T11:19:11.197Z,102101.09
2022-08-09T11:22:10.865Z,102114.06
2022-08-09T11:25:08.132Z,102095.28
2022-08-09T11:28:02.561Z,102113.72
2022-08-09T11:30:36.811Z,102102.19
2022-08-09T11:33:14.172Z,102110.75
2022-08-09T11:35:50.145Z,102108.34
2022-08-09T11:38:32.499Z,102099.66
2022-08-09T11:41:05.959Z,102107.50
2022-08-09T11:43:43.125Z,102101.81
2022-08-09T11:46:11.490Z,102092.56
2022-08-09T11:48:52.232Z,102100.84
2022-08-09T11:52:56.796Z,102100.16
2022-08-09T11:54:27.770Z,102093.22
2022-08-09T11:57:47.443Z,102060.69
2022-08-09T12:00:20.474Z,102075.72
2022-08-09T12:02:53.503Z,102082.66
2022-08-09T12:05:23.642Z,102073.47
2022-08-09T12:07:52.663Z,102072.13
2022-08-09T12:10:38.725Z,102066.94
2022-08-09T12:14:07.428Z,102078.31
2022-08-09T12:16:01.632Z,102067.41
2022-08-09T12:18:33.596Z,102064.97
2022-08-09T12:21:26.324Z,102060.97
2022-08-09T12:24:02.850Z,102063.50
2022-08-09T12:28:58.591Z,102056.91
2022-08-09T12:29:43.900Z,102051.81
2022-08-09T12:32:27.269Z,102054.97
2022-08-09T12:35:02.657Z,102056.06
2022-08-09T12:37:44.047Z,102052.28
2022-08-09T12:40:18.900Z,102036.22
2022-08-09T12:42:50.677Z,102043.97
2022-08-09T12:45:34.409Z,102026.47
2022-08-09T12:48:19.859Z,102030.41
2022-08-09T12:50:57.602Z,102018.91
2022-08-09T12:53:35.180Z,102034.31
2022-08-09T12:56:15.441Z,102029.31
2022-08-09T12:59:10.284Z,102018.88
2022-08-09T13:01:42.688Z,102014.41
2022-08-09T13:04:38.061Z,102010.06
2022-08-09T13:07:14.426Z,102003.31
2022-08-09T13:09:55.785Z,102010.53
2022-08-09T13:12:29.379Z,102009.50
2022-08-09T13:15:07.299Z,102013.34
2022-08-09T13:18:02.860Z,102013.56
2022-08-09T13:20:37.336Z,102018.06
2022-08-09T13:24:17.158Z,102013.59
2022-08-09T13:26:10.069Z,102012.72
2022-08-09T13:28:39.562Z,102002.44
2022-08-09T13:32:15.664Z,102004.22
2022-08-09T13:33:58.156Z,102001.75
2022-08-09T13:36:41.540Z,102005.59
2022-08-09T13:41:50.896Z,101989.84
2022-08-09T13:42:11.037Z,101988.34
2022-08-09T13:44:42.173Z,101998.56
2022-08-09T13:47:28.846Z,102006.19
2022-08-09T13:50:01.820Z,102001.28
2022-08-09T13:52:31.945Z,102009.06
2022-08-09T13:55:04.956Z,101998.06
2022-08-09T13:57:40.494Z,101996.13
2022-08-09T14:00:13.449Z,101987.88
2022-08-09T14:03:02.936Z,101984.25
2022-08-09T14:05:59.122Z,101992.00
2022-08-09T14:08:23.449Z,101982.41
2022-08-09T14:10:52.888Z,101981.06
2022-08-09T14:14:15.785Z,101995.91
2022-08-09T14:16:16.498Z,101974.31
2022-08-09T14:18:51.608Z,101982.88
2022-08-09T14:21:22.292Z,101984.44
2022-08-09T14:23:56.507Z,101976.13
2022-08-09T14:26:30.436Z,101977.91
2022-08-09T14:29:08.129Z,101968.22
2022-08-09T14:31:54.762Z,101986.38
2022-08-09T14:34:27.386Z,101992.72
2022-08-09T14:37:06.440Z,101980.81
2022-08-09T14:39:40.194Z,101981.06
2022-08-09T14:42:30.565Z,101975.91
2022-08-09T14:46:39.991Z,101971.19
2022-08-09T14:48:00.229Z,101972.31
2022-08-09T14:50:31.698Z,101980.75
2022-08-09T14:53:01.658Z,101977.88
2022-08-09T14:55:32.154Z,101975.72
2022-08-09T14:58:02.935Z,101977.69
2022-08-09T15:00:33.620Z,101970.53
2022-08-09T15:03:03.666Z,101973.66
2022-08-09T15:05:32.848Z,101972.84
2022-08-09T15:08:01.091Z,101968.91
2022-08-09T15:10:31.496Z,101971.38
2022-08-09T15:13:01.528Z,101972.25
2022-08-09T15:15:34.549Z,101963.66
2022-08-09T15:18:12.443Z,101969.63
2022-08-09T15:22:01.071Z,101970.28
2022-08-09T15:24:00.708Z,101957.34
2022-08-09T15:26:30.948Z,101971.19
2022-08-09T15:29:04.118Z,101963.06
2022-08-09T15:31:41.276Z,101961.88
2022-08-09T15:34:31.608Z,101966.22
2022-08-09T15:36:59.554Z,101962.81
2022-08-09T15:39:34.607Z,101951.66
2022-08-09T15:42:12.380Z,101962.78
2022-08-09T15:44:43.133Z,101960.00
2022-08-09T15:47:14.046Z,101950.34
2022-08-09T15:50:00.742Z,101957.41
2022-08-09T15:52:31.637Z,101960.81
2022-08-09T15:54:59.882Z,101951.88
2022-08-09T15:57:35.680Z,101960.59
2022-08-09T16:00:17.019Z,101950.34
2022-08-09T16:02:56.489Z,101945.19
2022-08-09T16:05:47.158Z,101949.38
2022-08-09T16:08:30.749Z,101949.97
2022-08-09T16:11:01.680Z,101950.47
2022-08-09T16:14:04.709Z,101942.66
2022-08-09T16:16:18.843Z,101943.84
2022-08-09T16:18:48.851Z,101949.72
2022-08-09T16:21:25.191Z,101955.31
2022-08-09T16:23:55.606Z,101946.44
2022-08-09T16:26:34.594Z,101957.69
2022-08-09T16:29:11.368Z,101948.69
2022-08-09T16:32:19.794Z,101952.50
2022-08-09T16:34:55.703Z,101949.34
2022-08-09T16:37:53.094Z,101947.81
2022-08-09T16:40:09.752Z,101947.50
2022-08-09T16:42:38.761Z,101946.38
2022-08-09T16:45:13.776Z,101946.94
2022-08-09T16:48:41.279Z,101952.75
2022-08-09T16:50:34.154Z,101942.88
2022-08-09T16:53:05.572Z,101953.13
2022-08-09T16:55:58.548Z,101951.09
2022-08-09T16:58:21.819Z,101966.22
2022-08-09T17:00:50.817Z,101953.75
2022-08-09T17:03:21.481Z,101952.91
2022-08-09T17:06:08.403Z,101962.16
2022-08-09T17:08:59.045Z,101958.06
2022-08-09T17:11:40.076Z,101950.81
2022-08-09T17:14:25.901Z,101956.47
2022-08-09T17:17:01.126Z,101948.63
2022-08-09T17:19:46.338Z,101950.06
2022-08-09T17:22:24.037Z,101949.81
2022-08-09T17:25:09.876Z,101948.88
2022-08-09T17:27:49.590Z,101947.91
2022-08-09T17:30:26.516Z,101954.47
2022-08-09T17:33:01.393Z,101950.94
2022-08-09T17:35:35.160Z,101946.66
2022-08-09T17:38:14.411Z,101955.03
2022-08-09T17:40:53.944Z,101954.78
2022-08-09T17:43:33.563Z,101954.53
2022-08-09T17:46:06.717Z,101959.50
2022-08-09T17:48:39.363Z,101954.91
2022-08-09T17:51:19.540Z,101955.41
2022-08-09T17:53:54.700Z,101957.03
2022-08-09T17:56:27.055Z,101962.81
2022-08-09T17:58:58.898Z,101956.44
2022-08-09T18:01:57.647Z,101931.84
2022-08-09T18:04:16.927Z,101960.81
2022-08-09T18:06:54.631Z,101958.69
2022-08-09T18:09:40.261Z,101967.81
2022-08-09T18:12:18.140Z,101965.09
2022-08-09T18:14:50.041Z,101971.91
2022-08-09T18:17:27.161Z,101970.94
2022-08-09T18:20:59.346Z,101962.59
2022-08-09T18:23:05.832Z,101976.63
2022-08-09T18:25:52.501Z,101978.59
2022-08-09T18:30:35.443Z,101979.50
2022-08-09T18:31:14.683Z,101981.88
2022-08-09T18:33:48.850Z,101975.53
2022-08-09T18:36:26.099Z,101981.09
2022-08-09T18:39:02.466Z,101986.69
2022-08-09T18:41:34.790Z,101987.06
2022-08-09T18:44:12.915Z,101994.41
2022-08-09T18:46:49.152Z,101994.94
2022-08-09T18:49:27.970Z,101985.84
2022-08-09T18:52:00.373Z,101991.59
2022-08-09T18:54:30.087Z,101989.63
2022-08-09T18:57:06.364Z,101997.09
2022-08-09T18:59:37.498Z,101994.22
2022-08-09T19:02:16.692Z,101998.97
2022-08-09T19:04:47.866Z,102001.25
2022-08-09T19:07:31.839Z,102005.94
2022-08-09T19:10:13.727Z,102009.19
2022-08-09T19:12:50.311Z,102016.41
2022-08-09T19:15:26.994Z,102016.84
2022-08-09T19:17:58.502Z,102015.44
2022-08-09T19:20:34.169Z,102001.03
2022-08-09T19:23:07.452Z,102009.50
2022-08-09T19:25:41.963Z,102013.38
2022-08-09T19:28:28.682Z,102006.63
2022-08-09T19:30:57.325Z,101991.91
2022-08-09T19:33:25.240Z,102016.19
2022-08-09T19:35:57.459Z,102017.38
2022-08-09T19:38:27.567Z,102023.91
2022-08-09T19:40:57.716Z,102012.41
2022-08-09T19:43:58.227Z,102015.28
2022-08-09T19:46:34.127Z,102023.38
2022-08-09T19:50:06.766Z,102014.03
2022-08-09T19:51:55.750Z,102029.56
2022-08-09T19:54:24.996Z,102036.84
2022-08-09T19:56:53.437Z,102031.31
2022-08-09T19:59:59.595Z,102034.25
2022-08-09T20:04:07.039Z,102038.06
2022-08-09T20:05:01.431Z,102042.72
2022-08-09T20:07:56.955Z,102012.91
2022-08-09T20:10:22.046Z,102032.13
2022-08-09T20:12:52.039Z,102039.56
2022-08-09T20:16:35.316Z,102039.28
2022-08-09T20:18:10.304Z,102036.19
2022-08-09T20:20:40.240Z,102032.19
2022-08-09T20:23:09.396Z,102028.72
2022-08-09T20:25:49.625Z,102025.81
2022-08-09T20:28:28.072Z,102023.94
2022-08-09T20:31:04.956Z,101990.66
2022-08-09T20:33:39.119Z,102032.66
2022-08-09T20:36:10.383Z,102014.16
2022-08-09T20:39:17.114Z,102019.50
2022-08-09T20:41:35.133Z,102019.06
2022-08-09T20:44:06.870Z,102013.72
2022-08-09T20:46:43.083Z,102014.25
2022-08-09T20:49:13.576Z,102017.47
2022-08-09T20:51:42.422Z,102025.97
2022-08-09T20:54:16.412Z,102017.06
2022-08-09T20:56:46.933Z,102023.75
2022-08-09T20:59:16.817Z,102026.88
2022-08-09T21:01:50.730Z,102032.44
2022-08-09T21:05:51.579Z,102044.72
2022-08-09T21:07:11.942Z,102032.91
2022-08-09T21:09:45.523Z,102036.66
2022-08-09T21:12:23.376Z,102047.25
2022-08-09T21:14:51.229Z,102039.09
2022-08-09T21:18:11.158Z,102045.56
2022-08-09T21:20:23.109Z,102042.53
2022-08-09T21:22:54.842Z,102035.03
2022-08-09T21:25:44.372Z,102035.56
2022-08-09T21:28:33.516Z,102051.34
2022-08-09T21:31:01.986Z,102053.69
2022-08-09T21:33:50.534Z,102045.66
2022-08-09T21:36:20.872Z,102049.53
2022-08-09T21:38:57.194Z,102051.00
2022-08-09T21:42:04.148Z,102048.97
2022-08-09T21:44:33.294Z,102048.72
2022-08-09T21:47:04.967Z,102056.97
2022-08-09T21:49:39.449Z,102049.13
2022-08-09T21:52:17.627Z,102031.75
2022-08-09T21:55:03.112Z,102055.59
2022-08-09T21:57:39.071Z,102057.66
2022-08-09T22:00:25.277Z,102060.66
2022-08-09T22:02:58.810Z,102071.28
2022-08-09T22:05:35.392Z,102069.03
2022-08-09T22:08:04.703Z,102068.56
2022-08-09T22:10:33.221Z,102078.31
2022-08-09T22:13:07.226Z,102065.91
2022-08-09T22:15:39.319Z,102067.22
2022-08-09T22:18:12.074Z,102063.16
2022-08-09T22:20:42.292Z,102061.91
2022-08-09T22:23:10.575Z,102070.09
2022-08-09T22:26:06.548Z,102068.94
2022-08-09T22:28:33.040Z,102066.53
2022-08-09T22:31:02.103Z,102058.38
2022-08-09T22:33:48.545Z,102061.06
2022-08-09T22:36:19.401Z,102061.47
2022-08-09T22:38:48.542Z,102075.03
2022-08-09T22:41:16.494Z,102067.09
2022-08-09T22:44:01.873Z,102071.97
2022-08-09T22:48:12.887Z,102085.25
2022-08-09T22:49:19.972Z,102090.25
2022-08-09T22:51:56.680Z,102085.66
2022-08-09T22:54:27.325Z,102085.25
2022-08-09T22:56:56.623Z,102085.81
2022-08-09T22:59:57.611Z,102086.16
2022-08-09T23:02:16.010Z,102092.97
2022-08-09T23:04:53.769Z,102097.56
2022-08-09T23:08:23.319Z,102102.41
2022-08-09T23:10:31.543Z,102105.31
2022-08-09T23:12:59.612Z,102101.59
2022-08-09T23:15:28.441Z,102107.38
2022-08-09T23:17:57.084Z,102111.19
2022-08-09T23:20:26.155Z,102104.44
2022-08-09T23:22:55.612Z,102103.16
2022-08-09T23:25:23.580Z,102092.03
2022-08-09T23:27:59.650Z,102104.91
2022-08-09T23:30:39.458Z,102102.00
2022-08-09T23:33:17.152Z,102097.53
2022-08-09T23:36:05.732Z,102092.91
2022-08-09T23:38:34.458Z,102097.66
2022-08-09T23:41:03.173Z,102090.63
2022-08-09T23:43:31.156Z,102092.91
2022-08-09T23:45:59.290Z,102087.69
2022-08-09T23:48:27.555Z,102089.09
2022-08-09T23:50:55.581Z,102088.97
2022-08-09T23:53:23.552Z,102085.25
2022-08-09T23:55:57.641Z,102079.88
2022-08-09T23:58:29.688Z,102085.63
